Time,TemperatureF,DewpointF,PressureIn,WindDirection,WindDirectionDegrees,WindSpeedMPH,WindSpeedGustMPH,Humidity,HourlyPrecipIn,Conditions,Clouds,dailyrainin,SoftwareType,DateUTC
2013-05-03 00:00:00,58.0,36.0,-100.00,South,176,2.0,-999.0,43,0.00,,,-99.99,,2013-05-03 07:00:00,
2013-05-03 00:22:00,58.0,36.0,-100.00,South,176,2.0,-999.0,43,0.00,,,-99.99,,2013-05-03 07:22:00,
2013-05-03 00:32:00,58.0,36.0,-100.00,South,176,2.0,-999.0,43,0.00,,,-99.99,,2013-05-03 07:32:00,
2013-05-03 00:42:00,58.0,36.0,-100.00,South,176,2.0,-999.0,43,0.00,,,-99.99,,2013-05-03 07:42:00,
2013-05-03 00:52:00,58.0,36.0,-100.00,South,176,2.0,-999.0,43,0.00,,,-99.99,,2013-05-03 07:52:00,
2013-05-03 01:00:00,53.0,37.0,-100.00,South,178,4.0,-999.0,52,0.00,,,-99.99,,2013-05-03 08:00:00,
2013-05-03 01:21:00,53.0,37.0,-100.00,South,178,4.0,-999.0,52,0.00,,,-99.99,,2013-05-03 08:21:00,
2013-05-03 01:32:00,53.0,37.0,-100.00,South,178,4.0,-999.0,52,0.00,,,-99.99,,2013-05-03 08:32:00,
2013-05-03 01:42:00,53.0,37.0,-100.00,South,178,4.0,-999.0,52,0.00,,,-99.99,,2013-05-03 08:42:00,
2013-05-03 01:52:00,53.0,37.0,-100.00,South,178,4.0,-999.0,52,0.00,,,-99.99,,2013-05-03 08:52:00,
2013-05-03 02:00:00,51.0,36.0,-100.00,SSE,164,4.0,-999.0,57,0.00,,,-99.99,,2013-05-03 09:00:00,
2013-05-03 02:21:00,51.0,36.0,-100.00,SSE,164,4.0,-999.0,57,0.00,,,-99.99,,2013-05-03 09:21:00,
2013-05-03 02:33:00,51.0,36.0,-100.00,SSE,164,4.0,-999.0,57,0.00,,,-99.99,,2013-05-03 09:33:00,
2013-05-03 02:42:00,51.0,36.0,-100.00,SSE,164,4.0,-999.0,57,0.00,,,-99.99,,2013-05-03 09:42:00,
2013-05-03 02:53:00,51.0,36.0,-100.00,SSE,164,4.0,-999.0,57,0.00,,,-99.99,,2013-05-03 09:53:00,
2013-05-03 03:00:00,50.0,35.0,-100.00,SE,128,2.0,-999.0,56,0.00,,,-99.99,,2013-05-03 10:00:00,
2013-05-03 03:22:00,50.0,35.0,-100.00,SE,128,2.0,-999.0,56,0.00,,,-99.99,,2013-05-03 10:22:00,
2013-05-03 03:32:00,50.0,35.0,-100.00,SE,128,2.0,-999.0,56,0.00,,,-99.99,,2013-05-03 10:32:00,
2013-05-03 03:42:00,50.0,35.0,-100.00,SE,128,2.0,-999.0,56,0.00,,,-99.99,,2013-05-03 10:42:00,
2013-05-03 03:52:00,50.0,35.0,-100.00,SE,128,2.0,-999.0,56,0.00,,,-99.99,,2013-05-03 10:52:00,
2013-05-03 04:00:00,47.0,37.0,-100.00,SSE,162,4.0,-999.0,67,0.00,,,-99.99,,2013-05-03 11:00:00,
2013-05-03 04:22:00,47.0,37.0,-100.00,SSE,162,4.0,-999.0,67,0.00,,,-99.99,,2013-05-03 11:22:00,
2013-05-03 04:32:00,47.0,37.0,-100.00,SSE,162,4.0,-999.0,67,0.00,,,-99.99,,2013-05-03 11:32:00,
2013-05-03 04:42:00,47.0,37.0,-100.00,SSE,162,4.0,-999.0,67,0.00,,,-99.99,,2013-05-03 11:42:00,
2013-05-03 04:52:00,47.0,37.0,-100.00,SSE,162,4.0,-999.0,67,0.00,,,-99.99,,2013-05-03 11:52:00,
2013-05-03 05:00:00,47.0,36.0,-100.00,South,171,3.0,-999.0,64,0.00,,,-99.99,,2013-05-03 12:00:00,
2013-05-03 05:22:00,47.0,36.0,-100.00,South,171,3.0,-999.0,64,0.00,,,-99.99,,2013-05-03 12:22:00,
2013-05-03 05:32:00,47.0,36.0,-100.00,South,171,3.0,-999.0,64,0.00,,,-99.99,,2013-05-03 12:32:00,
2013-05-03 05:42:00,47.0,36.0,-100.00,South,171,3.0,-999.0,64,0.00,,,-99.99,,2013-05-03 12:42:00,
2013-05-03 05:52:00,47.0,36.0,-100.00,South,171,3.0,-999.0,64,0.00,,,-99.99,,2013-05-03 12:52:00,
2013-05-03 06:00:00,45.0,36.0,-100.00,SSE,166,4.0,-999.0,68,0.00,,,-99.99,,2013-05-03 13:00:00,
2013-05-03 06:22:00,45.0,36.0,-100.00,SSE,166,4.0,-999.0,68,0.00,,,-99.99,,2013-05-03 13:22:00,
2013-05-03 06:32:00,45.0,36.0,-100.00,SSE,166,4.0,-999.0,68,0.00,,,-99.99,,2013-05-03 13:32:00,
2013-05-03 06:42:00,45.0,36.0,-100.00,SSE,166,4.0,-999.0,68,0.00,,,-99.99,,2013-05-03 13:42:00,
2013-05-03 06:52:00,45.0,36.0,-100.00,SSE,166,4.0,-999.0,68,0.00,,,-99.99,,2013-05-03 13:52:00,
2013-05-03 07:00:00,44.0,35.0,-100.00,South,170,4.0,-999.0,72,0.00,,,-99.99,,2013-05-03 14:00:00,
2013-05-03 07:22:00,44.0,35.0,-100.00,South,170,4.0,-999.0,72,0.00,,,-99.99,,2013-05-03 14:22:00,
2013-05-03 07:32:00,44.0,35.0,-100.00,South,170,4.0,-999.0,72,0.00,,,-99.99,,2013-05-03 14:32:00,
2013-05-03 07:42:00,44.0,35.0,-100.00,South,170,4.0,-999.0,72,0.00,,,-99.99,,2013-05-03 14:42:00,
2013-05-03 07:52:00,44.0,35.0,-100.00,South,170,4.0,-999.0,72,0.00,,,-99.99,,2013-05-03 14:52:00,
2013-05-03 08:00:00,46.0,35.0,-100.00,SSE,161,4.0,-999.0,65,0.00,,,-99.99,,2013-05-03 15:00:00,
2013-05-03 08:22:00,46.0,35.0,-100.00,SSE,161,4.0,-999.0,65,0.00,,,-99.99,,2013-05-03 15:22:00,
2013-05-03 08:32:00,46.0,35.0,-100.00,SSE,161,4.0,-999.0,65,0.00,,,-99.99,,2013-05-03 15:32:00,
2013-05-03 08:43:00,46.0,35.0,-100.00,SSE,161,4.0,-999.0,65,0.00,,,-99.99,,2013-05-03 15:43:00,
2013-05-03 08:53:00,46.0,35.0,-100.00,SSE,161,4.0,-999.0,65,0.00,,,-99.99,,2013-05-03 15:53:00,
2013-05-03 09:00:00,51.0,37.0,-100.00,SSE,166,4.0,-999.0,57,0.00,,,-99.99,,2013-05-03 16:00:00,
2013-05-03 09:23:00,51.0,37.0,-100.00,SSE,166,4.0,-999.0,57,0.00,,,-99.99,,2013-05-03 16:23:00,
2013-05-03 09:33:00,51.0,37.0,-100.00,SSE,166,4.0,-999.0,57,0.00,,,-99.99,,2013-05-03 16:33:00,
2013-05-03 09:42:00,51.0,37.0,-100.00,SSE,166,4.0,-999.0,57,0.00,,,-99.99,,2013-05-03 16:42:00,
2013-05-03 09:52:00,51.0,37.0,-100.00,SSE,166,4.0,-999.0,57,0.00,,,-99.99,,2013-05-03 16:52:00,
2013-05-03 10:00:00,62.0,38.0,-100.00,SSE,164,3.0,-999.0,41,0.00,,,-99.99,,2013-05-03 17:00:00,
2013-05-03 10:32:00,62.0,38.0,-100.00,SSE,164,3.0,-999.0,41,0.00,,,-99.99,,2013-05-03 17:32:00,
2013-05-03 10:42:00,62.0,38.0,-100.00,SSE,164,3.0,-999.0,41,0.00,,,-99.99,,2013-05-03 17:42:00,
2013-05-03 10:52:00,62.0,38.0,-100.00,SSE,164,3.0,-999.0,41,0.00,,,-99.99,,2013-05-03 17:52:00,
2013-05-03 11:00:00,73.0,35.0,-100.00,SSW,192,3.0,-999.0,25,0.00,,,-99.99,,2013-05-03 18:00:00,
2013-05-03 11:22:00,73.0,35.0,-100.00,SSW,192,3.0,-999.0,25,0.00,,,-99.99,,2013-05-03 18:22:00,
2013-05-03 11:32:00,73.0,35.0,-100.00,SSW,192,3.0,-999.0,25,0.00,,,-99.99,,2013-05-03 18:32:00,
2013-05-03 11:42:00,73.0,35.0,-100.00,SSW,192,3.0,-999.0,25,0.00,,,-99.99,,2013-05-03 18:42:00,
2013-05-03 11:52:00,73.0,35.0,-100.00,SSW,192,3.0,-999.0,25,0.00,,,-99.99,,2013-05-03 18:52:00,
2013-05-03 12:00:00,82.0,37.0,-100.00,North,9,0.0,-999.0,20,0.00,,,-99.99,,2013-05-03 19:00:00,
2013-05-03 12:21:00,82.0,37.0,-100.00,North,9,0.0,-999.0,20,0.00,,,-99.99,,2013-05-03 19:21:00,
2013-05-03 12:32:00,82.0,37.0,-100.00,North,9,0.0,-999.0,20,0.00,,,-99.99,,2013-05-03 19:32:00,
2013-05-03 13:22:00,88.0,34.0,-100.00,SSW,192,3.0,-999.0,14,0.00,,,-99.99,,2013-05-03 20:22:00,
2013-05-03 13:32:00,88.0,34.0,-100.00,SSW,192,3.0,-999.0,14,0.00,,,-99.99,,2013-05-03 20:32:00,
2013-05-03 14:22:00,91.0,40.0,-100.00,NNE,16,1.0,-999.0,17,0.00,,,-99.99,,2013-05-03 21:22:00,
2013-05-03 14:33:00,91.0,40.0,-100.00,NNE,16,1.0,-999.0,17,0.00,,,-99.99,,2013-05-03 21:33:00,
2013-05-03 15:22:00,89.0,38.0,-100.00,WSW,248,1.0,-999.0,17,0.00,,,-99.99,,2013-05-03 22:22:00,
2013-05-03 15:32:00,89.0,38.0,-100.00,WSW,248,1.0,-999.0,17,0.00,,,-99.99,,2013-05-03 22:32:00,
2013-05-03 16:22:00,86.0,34.0,-100.00,NNW,335,4.0,-999.0,15,0.00,,,-99.99,,2013-05-03 23:22:00,
2013-05-03 16:32:00,86.0,34.0,-100.00,NNW,335,4.0,-999.0,15,0.00,,,-99.99,,2013-05-03 23:32:00,
2013-05-03 17:23:00,86.0,29.0,-100.00,North,3,3.0,-999.0,12,0.00,,,-99.99,,2013-05-04 00:23:00,
2013-05-03 17:32:00,86.0,29.0,-100.00,North,3,3.0,-999.0,12,0.00,,,-99.99,,2013-05-04 00:32:00,
2013-05-03 18:21:00,82.0,26.0,-100.00,NNW,345,7.0,-999.0,12,0.00,,,-99.99,,2013-05-04 01:21:00,
2013-05-03 18:32:00,82.0,26.0,-100.00,NNW,345,7.0,-999.0,12,0.00,,,-99.99,,2013-05-04 01:32:00,
2013-05-03 19:21:00,80.0,32.0,-100.00,SW,236,1.0,-999.0,17,0.00,,,-99.99,,2013-05-04 02:21:00,
2013-05-03 19:32:00,80.0,32.0,-100.00,SW,236,1.0,-999.0,17,0.00,,,-99.99,,2013-05-04 02:32:00,
2013-05-03 20:22:00,76.0,36.0,-100.00,NW,319,2.0,-999.0,24,0.00,,,-99.99,,2013-05-04 03:22:00,
2013-05-03 20:33:00,76.0,36.0,-100.00,NW,319,2.0,-999.0,24,0.00,,,-99.99,,2013-05-04 03:33:00,
2013-05-03 21:23:00,71.0,38.0,-100.00,North,356,2.0,-999.0,30,0.00,,,-99.99,,2013-05-04 04:23:00,
2013-05-03 21:33:00,71.0,38.0,-100.00,North,356,2.0,-999.0,30,0.00,,,-99.99,,2013-05-04 04:33:00,
2013-05-03 22:22:00,67.0,40.0,-100.00,South,170,1.0,-999.0,37,0.00,,,-99.99,,2013-05-04 05:22:00,
2013-05-03 22:32:00,67.0,40.0,-100.00,South,170,1.0,-999.0,37,0.00,,,-99.99,,2013-05-04 05:32:00,
2013-05-03 22:43:00,67.0,40.0,-100.00,South,170,1.0,-999.0,37,0.00,,,-99.99,,2013-05-04 05:43:00,
2013-05-03 22:52:00,67.0,40.0,-100.00,South,170,1.0,-999.0,37,0.00,,,-99.99,,2013-05-04 05:52:00,
2013-05-03 23:22:00,64.0,41.0,-100.00,South,173,1.0,-999.0,43,0.00,,,-99.99,,2013-05-04 06:22:00,
2013-05-03 23:32:00,64.0,41.0,-100.00,South,173,1.0,-999.0,43,0.00,,,-99.99,,2013-05-04 06:32:00,